createdAt,value
2024-05-09T00:00:54.117Z,54.82
2024-05-09T00:03:47.036Z,54.98
2024-05-09T00:06:18.744Z,55.17
2024-05-09T00:08:50.264Z,55.73
2024-05-09T00:11:20.956Z,56.03
2024-05-09T00:13:52.674Z,56.64
2024-05-09T00:16:22.872Z,56.59
2024-05-09T00:18:55.237Z,56.91
2024-05-09T00:21:25.880Z,57.10
2024-05-09T00:23:57.529Z,57.21
2024-05-09T00:26:28.290Z,57.60
2024-05-09T00:28:59.853Z,57.97
2024-05-09T00:31:30.235Z,58.10
2024-05-09T00:34:01.922Z,58.18
2024-05-09T00:36:32.336Z,58.13
2024-05-09T00:39:04.312Z,58.43
2024-05-09T00:41:34.703Z,58.77
2024-05-09T00:44:06.569Z,59.16
2024-05-09T00:46:36.793Z,59.64
2024-05-09T00:49:09.056Z,59.43
2024-05-09T00:51:39.905Z,59.32
2024-05-09T00:54:11.355Z,59.36
2024-05-09T00:56:41.369Z,59.56
2024-05-09T00:59:13.484Z,60.02
2024-05-09T01:01:43.902Z,60.42
2024-05-09T01:04:15.952Z,60.43
2024-05-09T01:06:46.153Z,60.83
2024-05-09T01:09:17.599Z,60.76
2024-05-09T01:11:47.990Z,60.68
2024-05-09T01:14:20.047Z,60.86
2024-05-09T01:16:50.141Z,60.92
2024-05-09T01:19:28.402Z,61.11
2024-05-09T01:22:00.209Z,61.46
2024-05-09T01:24:30.925Z,61.79
2024-05-09T01:27:02.567Z,62.02
2024-05-09T01:29:32.971Z,61.90
2024-05-09T01:32:05.089Z,61.99
2024-05-09T01:34:35.277Z,62.51
2024-05-09T01:37:06.846Z,62.54
2024-05-09T01:39:37.165Z,62.51
2024-05-09T01:42:08.511Z,62.82
2024-05-09T01:44:38.826Z,63.08
2024-05-09T01:47:10.493Z,63.56
2024-05-09T01:49:41.171Z,63.65
2024-05-09T01:52:12.578Z,63.55
2024-05-09T01:54:42.987Z,63.38
2024-05-09T01:57:14.440Z,63.40
2024-05-09T01:59:44.868Z,63.52
2024-05-09T02:02:16.853Z,63.91
2024-05-09T02:04:48.126Z,64.02
2024-05-09T02:07:19.745Z,64.14
2024-05-09T02:09:53.509Z,64.16
2024-05-09T02:12:25.194Z,64.10
2024-05-09T02:14:56.129Z,64.40
2024-05-09T02:17:27.702Z,64.54
2024-05-09T02:19:58.246Z,64.42
2024-05-09T02:22:29.873Z,64.59
2024-05-09T02:25:00.118Z,64.78
2024-05-09T02:27:31.646Z,64.83
2024-05-09T02:30:01.862Z,65.03
2024-05-09T02:32:34.024Z,65.06
2024-05-09T02:35:04.360Z,65.13
2024-05-09T02:37:36.022Z,65.31
2024-05-09T02:40:09.128Z,65.56
2024-05-09T02:42:43.217Z,65.78
2024-05-09T02:45:13.238Z,65.71
2024-05-09T02:47:45.080Z,65.97
2024-05-09T02:50:23.002Z,66.24
2024-05-09T02:52:59.630Z,66.26
2024-05-09T02:55:29.992Z,66.31
2024-05-09T02:58:01.595Z,66.35
2024-05-09T03:00:38.362Z,66.76
2024-05-09T03:03:14.881Z,66.79
2024-05-09T03:05:49.955Z,66.87
2024-05-09T03:08:20.215Z,66.99
2024-05-09T03:10:52.083Z,67.03
2024-05-09T03:13:22.328Z,67.09
2024-05-09T03:15:53.989Z,67.30
2024-05-09T03:18:24.082Z,67.58
2024-05-09T03:20:56.410Z,67.66
2024-05-09T03:23:26.806Z,67.83
2024-05-09T03:25:58.393Z,67.86
2024-05-09T03:28:28.802Z,68.01
2024-05-09T03:31:00.435Z,68.35
2024-05-09T03:33:31.046Z,68.35
2024-05-09T03:36:03.139Z,68.38
2024-05-09T03:38:42.558Z,68.80
2024-05-09T03:41:14.191Z,68.80
2024-05-09T03:43:44.812Z,68.89
2024-05-09T03:46:16.421Z,69.01
2024-05-09T03:48:46.861Z,69.01
2024-05-09T03:51:18.822Z,69.06
2024-05-09T03:53:49.166Z,68.96
2024-05-09T03:56:21.009Z,68.82
2024-05-09T03:58:51.330Z,68.89
2024-05-09T04:01:25.319Z,68.66
2024-05-09T04:03:55.943Z,68.40
2024-05-09T04:06:27.512Z,68.43
2024-05-09T04:08:57.832Z,68.22
2024-05-09T04:11:29.254Z,68.28
2024-05-09T04:13:59.726Z,68.13
2024-05-09T04:16:31.261Z,67.95
2024-05-09T04:19:01.648Z,67.76
2024-05-09T04:21:33.136Z,67.70
2024-05-09T04:24:03.572Z,67.53
2024-05-09T04:26:34.968Z,67.24
2024-05-09T04:29:05.579Z,67.42
2024-05-09T04:31:36.989Z,67.00
2024-05-09T04:34:07.655Z,66.52
2024-05-09T04:36:41.627Z,66.05
2024-05-09T04:39:15.445Z,65.58
2024-05-09T04:41:45.663Z,64.94
2024-05-09T04:44:17.584Z,64.38
2024-05-09T04:46:48.115Z,64.05
2024-05-09T04:49:20.018Z,63.90
2024-05-09T04:51:50.444Z,63.83
2024-05-09T04:54:30.028Z,62.57
2024-05-09T04:57:08.228Z,61.66
2024-05-09T04:59:38.723Z,61.42
2024-05-09T05:02:10.262Z,60.84
2024-05-09T05:04:40.738Z,60.37
2024-05-09T05:07:12.358Z,59.89
2024-05-09T05:09:42.520Z,58.89
2024-05-09T05:12:32.795Z,57.86
2024-05-09T05:15:04.730Z,55.58
2024-05-09T05:17:35.220Z,54.75
2024-05-09T05:20:08.641Z,52.50
2024-05-09T05:22:43.752Z,52.50
2024-05-09T05:25:14.211Z,50.30
2024-05-09T05:27:45.578Z,48.62
2024-05-09T05:30:21.270Z,47.75
2024-05-09T05:32:57.249Z,47.00
2024-05-09T05:35:27.542Z,46.39
2024-05-09T05:37:59.204Z,45.30
2024-05-09T05:40:36.311Z,43.88
2024-05-09T05:43:15.665Z,42.50
2024-05-09T05:45:48.144Z,42.81
2024-05-09T05:48:18.740Z,42.04
2024-05-09T05:50:50.729Z,41.15
2024-05-09T05:53:21.313Z,39.96
2024-05-09T05:55:52.773Z,39.09
2024-05-09T05:58:23.248Z,37.92
2024-05-09T06:00:54.844Z,37.36
2024-05-09T06:03:25.462Z,36.68
2024-05-09T06:05:57.128Z,36.10
2024-05-09T06:08:30.279Z,35.32
2024-05-09T06:11:02.948Z,34.62
2024-05-09T06:13:33.385Z,34.19
2024-05-09T06:16:05.043Z,34.10
2024-05-09T06:18:35.618Z,32.57
2024-05-09T06:21:10.337Z,32.13
2024-05-09T06:23:49.264Z,31.52
2024-05-09T06:26:20.799Z,31.36
2024-05-09T06:28:51.149Z,30.67
2024-05-09T06:31:24.397Z,30.27
2024-05-09T06:33:54.898Z,29.80
2024-05-09T06:36:27.200Z,29.46
2024-05-09T06:38:57.728Z,28.74
2024-05-09T06:41:29.374Z,28.16
2024-05-09T06:43:59.767Z,28.14
2024-05-09T06:46:31.368Z,27.81
2024-05-09T06:49:08.064Z,27.90
2024-05-09T06:51:40.320Z,27.73
2024-05-09T06:54:10.532Z,26.91
2024-05-09T06:56:42.362Z,26.39
2024-05-09T06:59:12.743Z,25.77
2024-05-09T07:01:44.829Z,25.82
2024-05-09T07:04:15.458Z,25.60
2024-05-09T07:06:47.275Z,25.46
2024-05-09T07:09:17.497Z,25.35
2024-05-09T07:11:49.526Z,24.81
2024-05-09T07:14:19.810Z,24.04
2024-05-09T07:16:51.602Z,24.20
2024-05-09T07:19:22.069Z,23.19
2024-05-09T07:21:53.611Z,22.85
2024-05-09T07:24:23.836Z,23.16
2024-05-09T07:26:56.651Z,22.15
2024-05-09T07:29:27.077Z,21.85
2024-05-09T07:31:58.729Z,21.16
2024-05-09T07:34:29.206Z,20.75
2024-05-09T07:37:02.158Z,20.33
2024-05-09T07:39:32.400Z,20.71
2024-05-09T07:42:04.306Z,20.65
2024-05-09T07:44:34.771Z,20.18
2024-05-09T07:48:14.465Z,20.16
2024-05-09T07:51:47.866Z,20.74
2024-05-09T07:53:35.355Z,20.21
2024-05-09T07:55:43.044Z,19.49
2024-05-09T07:58:13.518Z,19.29
2024-05-09T08:00:45.137Z,19.67
2024-05-09T08:03:16.043Z,19.28
2024-05-09T08:05:47.799Z,19.09
2024-05-09T08:08:18.093Z,18.89
2024-05-09T08:10:50.361Z,18.72
2024-05-09T08:13:20.841Z,18.32
2024-05-09T08:15:53.519Z,17.41
2024-05-09T08:18:24.054Z,16.46
2024-05-09T08:20:56.677Z,16.92
2024-05-09T08:23:26.805Z,16.49
2024-05-09T08:25:58.246Z,16.24
2024-05-09T08:28:28.579Z,15.61
2024-05-09T08:31:01.732Z,14.94
2024-05-09T08:33:35.776Z,14.88
2024-05-09T08:36:06.916Z,15.26
2024-05-09T08:38:38.374Z,14.60
2024-05-09T08:41:08.797Z,14.66
2024-05-09T08:43:42.116Z,14.09
2024-05-09T08:46:13.585Z,14.24
2024-05-09T08:48:48.434Z,13.45
2024-05-09T08:51:21.458Z,13.25
2024-05-09T08:53:51.888Z,12.76
2024-05-09T08:56:23.579Z,13.30
2024-05-09T08:58:57.146Z,13.14
2024-05-09T09:01:30.514Z,13.08
2024-05-09T09:04:04.340Z,12.92
2024-05-09T09:06:36.420Z,12.80
2024-05-09T09:09:06.834Z,12.07
2024-05-09T09:11:38.506Z,12.13
2024-05-09T09:14:10.319Z,11.98
2024-05-09T09:16:51.949Z,11.40
2024-05-09T09:19:25.095Z,11.24
2024-05-09T09:21:57.131Z,11.30
2024-05-09T09:24:28.170Z,11.47
2024-05-09T09:27:02.781Z,11.44
2024-05-09T09:29:33.601Z,10.67
2024-05-09T09:32:05.601Z,10.83
2024-05-09T09:34:41.744Z,10.81
2024-05-09T09:37:12.536Z,10.90
2024-05-09T09:39:49.033Z,10.57
2024-05-09T09:42:24.369Z,10.54
2024-05-09T09:45:02.215Z,10.26
2024-05-09T09:47:39.923Z,10.56
2024-05-09T09:50:14.449Z,10.34
2024-05-09T09:52:52.398Z,10.43
2024-05-09T09:55:25.005Z,10.23
2024-05-09T09:57:56.004Z,9.53
2024-05-09T10:00:32.635Z,9.63
2024-05-09T10:03:05.704Z,9.92
2024-05-09T10:05:36.156Z,9.53
2024-05-09T10:08:10.813Z,9.54
2024-05-09T10:10:41.023Z,10.73
2024-05-09T10:13:13.087Z,11.46
2024-05-09T10:15:54.582Z,11.63
2024-05-09T10:18:29.571Z,11.97
2024-05-09T10:21:02.922Z,12.34
2024-05-09T10:23:34.700Z,11.97
2024-05-09T10:26:06.571Z,11.41
2024-05-09T10:28:37.504Z,11.36
2024-05-09T10:31:09.996Z,11.58
2024-05-09T10:33:45.360Z,11.02
2024-05-09T10:36:20.139Z,11.38
2024-05-09T10:38:53.250Z,10.90
2024-05-09T10:41:23.887Z,10.29
2024-05-09T10:43:55.500Z,9.59
2024-05-09T10:46:25.751Z,9.30
2024-05-09T10:48:57.512Z,9.26
2024-05-09T10:51:28.578Z,9.23
2024-05-09T10:54:00.167Z,9.37
2024-05-09T10:56:30.640Z,8.83
2024-05-09T10:59:05.027Z,9.02
2024-05-09T11:01:35.522Z,8.69
2024-05-09T11:04:08.283Z,8.97
2024-05-09T11:06:38.947Z,8.74
2024-05-09T11:09:10.419Z,8.12
2024-05-09T11:11:40.776Z,8.36
2024-05-09T11:14:13.055Z,8.10
2024-05-09T11:16:43.527Z,8.35
2024-05-09T11:19:15.110Z,8.25
2024-05-09T11:21:50.598Z,8.46
2024-05-09T11:24:22.801Z,8.48
2024-05-09T11:26:53.133Z,8.51
2024-05-09T11:29:45.817Z,8.46
2024-05-09T11:32:27.413Z,8.47
2024-05-09T11:34:59.132Z,8.25
2024-05-09T11:37:31.827Z,8.07
2024-05-09T11:40:09.243Z,8.61
2024-05-09T11:42:47.697Z,8.10
2024-05-09T11:45:20.281Z,8.07
2024-05-09T11:47:50.561Z,7.84
2024-05-09T11:50:27.331Z,8.23
2024-05-09T11:53:05.405Z,8.04
2024-05-09T11:55:36.590Z,8.61
2024-05-09T11:58:08.836Z,8.71
2024-05-09T12:00:39.181Z,9.26
2024-05-09T12:03:12.394Z,9.62
2024-05-09T12:05:42.929Z,9.76
2024-05-09T12:08:14.606Z,9.61
2024-05-09T12:10:45.073Z,9.65
2024-05-09T12:13:17.016Z,9.51
2024-05-09T12:15:47.815Z,9.86
2024-05-09T12:18:19.662Z,10.80
2024-05-09T12:20:50.124Z,11.07
2024-05-09T12:23:22.083Z,11.44
2024-05-09T12:25:52.200Z,11.28
2024-05-09T12:28:24.086Z,11.14
2024-05-09T12:30:54.606Z,11.48
2024-05-09T12:33:26.312Z,11.51
2024-05-09T12:35:56.779Z,11.87
2024-05-09T12:38:28.021Z,12.48
2024-05-09T12:40:58.374Z,12.69
2024-05-09T12:43:29.811Z,12.15
2024-05-09T12:46:00.491Z,11.84
2024-05-09T12:48:32.163Z,12.20
2024-05-09T12:51:02.625Z,11.99
2024-05-09T12:53:33.958Z,12.67
2024-05-09T12:56:05.961Z,13.41
2024-05-09T12:58:38.188Z,13.95
2024-05-09T13:01:08.801Z,14.36
2024-05-09T13:03:40.492Z,14.80
2024-05-09T13:06:11.205Z,14.99
2024-05-09T13:08:42.463Z,15.58
2024-05-09T13:11:13.167Z,16.17
2024-05-09T13:13:44.644Z,16.84
2024-05-09T13:16:15.145Z,17.31
2024-05-09T13:18:46.556Z,18.11
2024-05-09T13:21:17.390Z,18.79
2024-05-09T13:23:48.710Z,18.57
2024-05-09T13:26:19.228Z,17.74
2024-05-09T13:28:50.581Z,16.93
2024-05-09T13:31:21.145Z,16.49
2024-05-09T13:33:52.959Z,16.20
2024-05-09T13:36:23.700Z,16.15
2024-05-09T13:38:56.548Z,16.47
2024-05-09T13:41:27.007Z,16.40
2024-05-09T13:43:58.876Z,16.35
2024-05-09T13:46:29.092Z,15.79
2024-05-09T13:49:01.243Z,15.89
2024-05-09T13:51:31.947Z,16.03
2024-05-09T13:54:03.550Z,16.55
2024-05-09T13:56:33.768Z,16.04
2024-05-09T13:59:05.237Z,15.93
2024-05-09T14:01:35.828Z,16.10
2024-05-09T14:04:09.964Z,16.75
2024-05-09T14:06:40.459Z,17.07
2024-05-09T14:09:12.068Z,16.99
2024-05-09T14:11:42.712Z,17.33
2024-05-09T14:14:14.746Z,17.53
2024-05-09T14:16:45.010Z,18.18
2024-05-09T14:19:16.676Z,18.85
2024-05-09T14:21:47.298Z,19.63
2024-05-09T14:24:19.011Z,19.55
2024-05-09T14:26:49.228Z,19.86
2024-05-09T14:29:20.782Z,20.24
2024-05-09T14:31:51.422Z,20.49
2024-05-09T14:34:23.516Z,20.30
2024-05-09T14:36:54.203Z,20.00
2024-05-09T14:39:25.865Z,19.24
2024-05-09T14:41:56.205Z,19.00
2024-05-09T14:44:27.753Z,18.65
2024-05-09T14:46:58.226Z,17.76
2024-05-09T14:49:30.981Z,17.35
2024-05-09T14:52:01.157Z,17.41
2024-05-09T14:54:32.984Z,17.74
2024-05-09T14:57:03.882Z,17.36
2024-05-09T14:59:35.441Z,17.11
2024-05-09T15:02:05.660Z,17.05
2024-05-09T15:04:37.518Z,17.22
2024-05-09T15:07:08.335Z,17.51
2024-05-09T15:09:42.053Z,17.97
2024-05-09T15:12:12.379Z,18.03
2024-05-09T15:14:44.034Z,18.33
2024-05-09T15:17:14.266Z,19.20
2024-05-09T15:19:46.155Z,19.15
2024-05-09T15:22:17.549Z,19.46
2024-05-09T15:24:49.574Z,19.93
2024-05-09T15:27:19.858Z,20.38
2024-05-09T15:29:51.491Z,20.46
2024-05-09T15:32:21.844Z,20.96
2024-05-09T15:34:53.783Z,20.79
2024-05-09T15:37:24.232Z,20.64
2024-05-09T15:39:55.912Z,20.82
2024-05-09T15:42:26.515Z,20.93
2024-05-09T15:44:58.049Z,21.19
2024-05-09T15:47:28.953Z,21.36
2024-05-09T15:50:00.780Z,21.66
2024-05-09T15:52:31.285Z,22.21
2024-05-09T15:55:03.212Z,22.07
2024-05-09T15:57:33.720Z,22.11
2024-05-09T16:00:09.777Z,22.13
2024-05-09T16:02:46.778Z,21.94
2024-05-09T16:05:17.699Z,22.16
2024-05-09T16:07:49.518Z,22.09
2024-05-09T16:10:25.793Z,22.04
2024-05-09T16:13:02.672Z,22.17
2024-05-09T16:15:33.782Z,22.26
2024-05-09T16:18:05.509Z,22.13
2024-05-09T16:20:40.172Z,21.90
2024-05-09T16:23:14.076Z,22.56
2024-05-09T16:25:46.244Z,22.37
2024-05-09T16:28:18.679Z,22.46
2024-05-09T16:30:50.126Z,22.60
2024-05-09T16:33:23.953Z,22.58
2024-05-09T16:35:54.516Z,22.47
2024-05-09T16:38:25.957Z,22.85
2024-05-09T16:40:56.315Z,22.93
2024-05-09T16:43:27.768Z,22.97
2024-05-09T16:45:58.407Z,23.34
2024-05-09T16:48:30.477Z,23.13
2024-05-09T16:51:00.855Z,23.26
2024-05-09T16:53:32.308Z,23.35
2024-05-09T16:56:02.958Z,23.39
2024-05-09T16:58:34.637Z,23.31
2024-05-09T17:01:05.176Z,23.15
2024-05-09T17:03:37.084Z,23.33
2024-05-09T17:06:07.740Z,23.37
2024-05-09T17:08:40.534Z,23.51
2024-05-09T17:11:13.308Z,23.90
2024-05-09T17:13:48.181Z,24.00
2024-05-09T17:16:21.063Z,24.26
2024-05-09T17:18:51.666Z,24.35
2024-05-09T17:21:23.377Z,24.26
2024-05-09T17:23:55.855Z,24.52
2024-05-09T17:26:27.619Z,24.65
2024-05-09T17:28:58.251Z,25.10
2024-05-09T17:31:29.888Z,25.45
2024-05-09T17:34:00.457Z,25.91
2024-05-09T17:36:32.401Z,26.07
2024-05-09T17:39:02.722Z,26.50
2024-05-09T17:41:34.268Z,26.72
2024-05-09T17:44:06.380Z,26.70
2024-05-09T17:46:37.827Z,27.14
2024-05-09T17:49:08.276Z,27.42
2024-05-09T17:51:50.252Z,27.64
2024-05-09T17:54:21.965Z,28.15
2024-05-09T17:56:52.092Z,28.27
2024-05-09T17:59:23.743Z,28.33
2024-05-09T18:01:53.936Z,28.37
2024-05-09T18:04:25.795Z,28.67
2024-05-09T18:06:56.925Z,29.14
2024-05-09T18:09:28.425Z,29.23
2024-05-09T18:11:58.787Z,29.68
2024-05-09T18:14:30.296Z,30.03
2024-05-09T18:17:00.923Z,30.15
2024-05-09T18:19:32.689Z,30.38
2024-05-09T18:22:03.266Z,30.50
2024-05-09T18:24:35.411Z,30.78
2024-05-09T18:27:05.920Z,30.77
2024-05-09T18:29:37.370Z,31.14
2024-05-09T18:32:08.072Z,31.55
2024-05-09T18:34:39.845Z,31.79
2024-05-09T18:37:10.625Z,32.05
2024-05-09T18:39:42.461Z,32.40
2024-05-09T18:42:12.571Z,32.64
2024-05-09T18:44:44.227Z,32.84
2024-05-09T18:47:16.754Z,32.92
2024-05-09T18:49:51.393Z,32.87
2024-05-09T18:52:21.685Z,33.32
2024-05-09T18:54:53.427Z,33.49
2024-05-09T18:57:24.890Z,33.56
2024-05-09T18:59:56.830Z,33.68
2024-05-09T19:02:27.029Z,34.02
2024-05-09T19:04:58.925Z,35.11
2024-05-09T19:07:29.435Z,36.13
2024-05-09T19:10:00.994Z,36.67
2024-05-09T19:12:31.224Z,37.15
2024-05-09T19:15:02.706Z,37.38
2024-05-09T19:17:33.326Z,37.62
2024-05-09T19:20:06.031Z,37.68
2024-05-09T19:22:36.779Z,37.68
2024-05-09T19:25:08.901Z,38.04
2024-05-09T19:27:40.148Z,38.28
2024-05-09T19:30:21.044Z,38.83
2024-05-09T19:32:58.687Z,38.93
2024-05-09T19:35:29.006Z,39.59
2024-05-09T19:38:01.323Z,40.25
2024-05-09T19:40:33.733Z,40.57
2024-05-09T19:43:07.417Z,40.85
2024-05-09T19:45:38.080Z,41.24
2024-05-09T19:48:10.158Z,41.75
2024-05-09T19:50:43.987Z,41.71
2024-05-09T19:53:17.474Z,42.01
2024-05-09T19:55:48.288Z,42.27
2024-05-09T19:58:20.946Z,43.20
2024-05-09T20:00:51.310Z,43.83
2024-05-09T20:03:22.900Z,44.31
2024-05-09T20:05:53.489Z,44.71
2024-05-09T20:08:25.032Z,45.09
2024-05-09T20:10:56.060Z,45.32
2024-05-09T20:13:28.227Z,45.46
2024-05-09T20:15:58.591Z,45.72
2024-05-09T20:18:30.156Z,46.25
2024-05-09T20:21:00.949Z,46.87
2024-05-09T20:23:32.808Z,47.45
2024-05-09T20:26:03.033Z,47.61
2024-05-09T20:28:35.687Z,48.12
2024-05-09T20:31:06.493Z,48.54
2024-05-09T20:33:38.215Z,49.57
2024-05-09T20:36:08.772Z,50.27
2024-05-09T20:38:40.396Z,50.61
2024-05-09T20:41:10.925Z,50.60
2024-05-09T20:43:42.471Z,50.45
2024-05-09T20:46:14.606Z,51.01
2024-05-09T20:48:46.874Z,51.28
2024-05-09T20:51:17.335Z,51.63
2024-05-09T20:53:48.901Z,51.94
2024-05-09T20:56:22.287Z,52.00
2024-05-09T20:58:53.941Z,52.43
2024-05-09T21:01:24.465Z,52.89
2024-05-09T21:03:56.243Z,52.87
2024-05-09T21:06:27.016Z,52.79
2024-05-09T21:08:58.836Z,53.04
2024-05-09T21:11:29.100Z,53.06
2024-05-09T21:14:00.804Z,53.25
2024-05-09T21:16:34.274Z,53.76
2024-05-09T21:19:05.973Z,53.77
2024-05-09T21:21:42.131Z,53.61
2024-05-09T21:24:13.638Z,53.74
2024-05-09T21:26:43.891Z,54.49
2024-05-09T21:29:15.647Z,54.89
2024-05-09T21:31:45.663Z,55.79
2024-05-09T21:34:17.471Z,56.09
2024-05-09T21:36:47.763Z,55.55
2024-05-09T21:39:19.296Z,55.29
2024-05-09T21:41:49.644Z,55.39
2024-05-09T21:44:21.280Z,55.75
2024-05-09T21:46:51.629Z,55.70
2024-05-09T21:49:23.097Z,56.16
2024-05-09T21:51:53.769Z,56.84
2024-05-09T21:54:25.445Z,57.29
2024-05-09T21:56:55.668Z,57.04
2024-05-09T21:59:27.239Z,57.06
2024-05-09T22:01:57.640Z,56.91
2024-05-09T22:04:29.522Z,56.80
2024-05-09T22:07:00.397Z,56.64
2024-05-09T22:09:32.279Z,56.48
2024-05-09T22:12:02.893Z,56.23
2024-05-09T22:14:34.598Z,56.17
2024-05-09T22:17:05.137Z,56.22
2024-05-09T22:19:36.911Z,56.43
2024-05-09T22:22:07.250Z,56.49
2024-05-09T22:24:38.916Z,56.25
2024-05-09T22:27:11.847Z,56.56
2024-05-09T22:29:43.499Z,56.58
2024-05-09T22:32:13.988Z,56.84
2024-05-09T22:34:45.559Z,56.82
2024-05-09T22:37:16.348Z,56.70
2024-05-09T22:39:48.116Z,56.81
2024-05-09T22:42:18.300Z,56.53
2024-05-09T22:44:49.775Z,56.51
2024-05-09T22:47:20.371Z,57.01
2024-05-09T22:49:52.061Z,57.25
2024-05-09T22:52:22.395Z,57.51
2024-05-09T22:54:54.282Z,57.55
2024-05-09T22:57:24.646Z,57.64
2024-05-09T22:59:55.893Z,58.13
2024-05-09T23:02:26.328Z,58.32
2024-05-09T23:04:58.087Z,58.90
2024-05-09T23:07:28.622Z,59.20
2024-05-09T23:10:00.017Z,59.59
2024-05-09T23:12:30.401Z,59.74
2024-05-09T23:15:01.853Z,59.59
2024-05-09T23:17:32.126Z,59.71
2024-05-09T23:20:05.267Z,59.84
2024-05-09T23:22:39.378Z,60.14
2024-05-09T23:25:09.523Z,60.21
2024-05-09T23:27:41.780Z,60.44
2024-05-09T23:30:15.212Z,60.84
2024-05-09T23:32:47.183Z,61.14
2024-05-09T23:35:17.422Z,61.67
2024-05-09T23:37:49.183Z,62.04
2024-05-09T23:40:23.218Z,62.55
2024-05-09T23:42:55.772Z,62.98
2024-05-09T23:45:26.117Z,62.67
2024-05-09T23:47:57.855Z,62.87
2024-05-09T23:50:34.446Z,63.25
2024-05-09T23:53:10.440Z,63.59
2024-05-09T23:55:41.312Z,63.95
2024-05-09T23:58:13.121Z,63.92
